Time;durP1;ratioP1;P1;durP2;ratioP2;P2;SDS_P1;SDS_P2;PMS_P1;PMS_P2;Temp;Humidity;BMP_temperature;BMP_pressure;BME280_temperature;BME280_humidity;BME280_pressure;Samples;Min_cycle;Max_cycle;Signal;HPM_P1;HPM_P2
2022/12/24 00:01:26;;;;;;;10.90;5.50;;;;;;;-0.01;92.54;101630.19;5020241;28;20053;-74
2022/12/24 00:03:55;;;;;;;9.02;5.10;;;;;;;0.03;92.53;101637.34;5019018;28;20071;-74
2022/12/24 00:06:25;;;;;;;8.48;4.63;;;;;;;0.08;92.64;101630.97;5022736;28;20045;-74
2022/12/24 00:08:55;;;;;;;8.30;4.70;;;;;;;0.08;92.66;101643.72;5023447;28;20057;-75
2022/12/24 00:11:25;;;;;;;9.48;4.72;;;;;;;0.10;92.92;101647.28;5026577;28;20057;-74
2022/12/24 00:13:58;;;;;;;10.02;4.50;;;;;;;0.08;91.87;101630.09;5025946;28;20790;-72
2022/12/24 00:16:26;;;;;;;6.70;4.68;;;;;;;-0.08;95.31;101636.41;5030560;28;20058;-74
2022/12/24 00:18:55;;;;;;;15.25;7.40;;;;;;;-0.20;95.47;101637.03;5025698;28;20069;-71
2022/12/24 00:21:24;;;;;;;10.27;5.50;;;;;;;-0.18;96.66;101632.94;5020739;28;20052;-74
2022/12/24 00:23:52;;;;;;;13.55;8.18;;;;;;;-0.14;97.33;101630.78;5022854;28;20525;-73
2022/12/24 00:26:21;;;;;;;188.57;89.22;;;;;;;-0.15;100.00;101630.69;5025419;28;20121;-73
2022/12/24 00:28:52;;;;;;;12.90;6.10;;;;;;;-0.03;100.00;101644.44;5018631;28;20079;-73
2022/12/24 00:31:20;;;;;;;12.15;6.15;;;;;;;0.00;100.00;101637.09;5022456;28;20053;-73
2022/12/24 00:33:50;;;;;;;11.52;5.07;;;;;;;0.05;98.64;101658.72;5022518;28;20049;-74
2022/12/24 00:36:19;;;;;;;15.35;6.15;;;;;;;0.09;97.76;101654.78;5022310;28;20530;-76
2022/12/24 00:38:47;;;;;;;10.27;4.47;;;;;;;0.13;96.46;101660.25;5024983;28;20049;-80
2022/12/24 00:41:27;;;;;;;7.80;4.93;;;;;;;0.15;95.26;101668.91;5026399;28;20514;-80
2022/12/24 00:43:59;;;;;;;11.95;4.55;;;;;;;0.18;94.84;101668.28;5023701;28;20038;-77
2022/12/24 00:46:29;;;;;;;7.72;4.07;;;;;;;0.20;95.06;101675.28;5020575;28;20046;-72
2022/12/24 00:48:58;;;;;;;10.45;5.00;;;;;;;0.23;94.77;101686.50;5024732;28;20064;-74
2022/12/24 00:51:27;;;;;;;17.27;5.55;;;;;;;0.24;94.37;101689.19;5033171;28;20046;-75
2022/12/24 00:53:55;;;;;;;7.32;4.15;;;;;;;0.24;94.61;101670.47;5026127;28;20515;-74
2022/12/24 00:56:24;;;;;;;9.70;4.50;;;;;;;0.23;94.13;101666.13;5024788;28;20053;-72
2022/12/24 00:58:54;;;;;;;8.60;4.40;;;;;;;0.18;94.90;101668.28;5028856;28;20053;-72
2022/12/24 01:01:25;;;;;;;7.63;4.53;;;;;;;0.08;94.86;101664.06;5026359;28;20054;-72
2022/12/24 01:05:09;;;;;;;6.82;4.10;;;;;;;0.04;94.81;101673.84;5028795;28;20654;-72
2022/12/24 01:06:41;;;;;;;11.10;4.72;;;;;;;-0.01;94.96;101671.78;5011130;28;20046;-74
2022/12/24 01:09:10;;;;;;;9.20;4.07;;;;;;;-0.01;94.83;101674.34;5014671;28;20144;-72
2022/12/24 01:11:39;;;;;;;11.80;5.03;;;;;;;-0.02;95.24;101669.13;5010498;28;20058;-74
2022/12/24 01:14:07;;;;;;;11.85;5.55;;;;;;;-0.03;95.39;101677.50;5014162;28;20410;-72
2022/12/24 01:16:38;;;;;;;10.45;5.60;;;;;;;-0.05;95.35;101664.66;5002670;28;20050;-74
2022/12/24 01:19:06;;;;;;;11.57;5.72;;;;;;;-0.04;95.08;101663.03;5005867;28;20060;-74
2022/12/24 01:21:35;;;;;;;12.45;5.93;;;;;;;-0.09;94.94;101660.09;5010013;28;20482;-72
2022/12/24 01:24:03;;;;;;;11.20;5.78;;;;;;;-0.13;95.39;101649.50;5007749;28;20608;-73
2022/12/24 01:26:32;;;;;;;13.25;6.38;;;;;;;-0.25;95.90;101640.06;5009275;28;20672;-73
2022/12/24 01:29:01;;;;;;;14.18;5.78;;;;;;;-0.33;97.13;101638.47;5010380;28;20678;-71
2022/12/24 01:31:30;;;;;;;14.50;5.65;;;;;;;-0.36;97.84;101634.81;5012541;28;20517;-71
2022/12/24 01:34:00;;;;;;;19.23;6.00;;;;;;;-0.38;97.88;101656.66;5009560;28;20045;-74
2022/12/24 01:36:28;;;;;;;10.32;5.30;;;;;;;-0.46;98.12;101646.72;5011227;28;20123;-70
2022/12/24 01:38:57;;;;;;;13.43;5.70;;;;;;;-0.51;98.78;101660.63;5005909;28;20057;-72
2022/12/24 01:44:25;;;;;;;13.75;5.57;;;;;;;-0.74;100.00;101686.56;5013758;28;20476;-72
2022/12/24 01:46:57;;;;;;;11.95;5.90;;;;;;;-0.81;100.00;101676.59;5005510;28;20050;-70
2022/12/24 01:49:27;;;;;;;12.43;6.15;;;;;;;-0.80;100.00;101657.16;5009315;28;20050;-71
2022/12/24 01:52:02;;;;;;;12.10;5.57;;;;;;;-0.84;100.00;101650.94;4999692;28;20065;-72
2022/12/24 01:54:33;;;;;;;13.20;5.32;;;;;;;-0.82;100.00;101661.22;5006230;28;20038;-73
2022/12/24 01:57:08;;;;;;;12.00;4.63;;;;;;;-0.92;100.00;101660.38;5008677;28;20060;-72
2022/12/24 01:59:38;;;;;;;14.35;5.80;;;;;;;-0.91;100.00;101663.84;5013451;28;20053;-73
2022/12/24 02:02:07;;;;;;;14.38;6.35;;;;;;;-0.86;100.00;101652.44;5007551;28;20057;-72
2022/12/24 02:04:41;;;;;;;11.15;5.13;;;;;;;-0.96;100.00;101660.91;5016423;28;20056;-72
2022/12/24 02:07:10;;;;;;;12.52;5.90;;;;;;;-0.98;100.00;101661.50;5027358;28;20053;-73
2022/12/24 02:09:39;;;;;;;10.25;5.15;;;;;;;-1.00;100.00;101665.56;5026132;28;20041;-73
2022/12/24 02:12:09;;;;;;;14.57;6.82;;;;;;;-0.97;100.00;101673.44;5027635;28;20055;-73
2022/12/24 02:14:39;;;;;;;13.20;5.80;;;;;;;-0.98;100.00;101703.03;5027006;28;20054;-74
2022/12/24 02:17:18;;;;;;;13.02;5.88;;;;;;;-0.88;100.00;101710.72;5024495;28;20061;-74
2022/12/24 02:20:31;;;;;;;15.02;7.05;;;;;;;-0.77;100.00;101716.78;5028892;28;20185;-71
2022/12/24 02:23:40;;;;;;;12.02;6.13;;;;;;;-0.69;100.00;101694.59;5024281;28;20408;-71
2022/12/24 02:26:27;;;;;;;16.83;5.82;;;;;;;-0.67;100.00;101696.50;5002966;28;20498;-69
2022/12/24 02:29:22;;;;;;;14.20;6.72;;;;;;;-0.64;100.00;101701.88;5026123;28;20521;-72
2022/12/24 02:31:57;;;;;;;16.05;6.35;;;;;;;-0.60;100.00;101702.16;5025971;28;20687;-72
2022/12/24 02:34:30;;;;;;;15.45;6.43;;;;;;;-0.55;100.00;101704.38;5025086;28;20060;-70
2022/12/24 02:37:05;;;;;;;12.18;5.45;;;;;;;-0.51;100.00;101703.84;5024620;28;20096;-73
2022/12/24 02:39:40;;;;;;;13.35;5.72;;;;;;;-0.38;100.00;101730.41;5023753;28;20041;-73
2022/12/24 02:42:09;;;;;;;13.05;5.85;;;;;;;-0.33;100.00;101717.31;5024480;28;20409;-71
2022/12/24 02:44:43;;;;;;;10.38;5.40;;;;;;;-0.28;100.00;101710.97;5024676;28;20057;-71
2022/12/24 02:47:15;;;;;;;14.55;5.80;;;;;;;-0.19;100.00;101710.00;5024935;28;20466;-71
2022/12/24 02:49:46;;;;;;;18.20;6.30;;;;;;;-0.14;100.00;101698.59;5026459;28;20509;-71
2022/12/24 02:52:32;;;;;;;16.45;6.68;;;;;;;-0.08;100.00;101704.22;5024894;28;20710;-71
2022/12/24 02:55:03;;;;;;;16.67;6.93;;;;;;;-0.04;100.00;101704.63;5015781;28;20491;-72
2022/12/24 02:57:44;;;;;;;10.93;5.40;;;;;;;0.01;99.99;101705.00;5026153;28;20055;-72
2022/12/24 03:00:17;;;;;;;18.00;7.22;;;;;;;0.05;99.98;101696.91;5023779;28;20490;-71
2022/12/24 03:02:53;;;;;;;;;;;;;;;0.04;99.36;101701.84;5028082;28;20114;-72
2022/12/24 03:05:28;;;;;;;14.10;5.80;;;;;;;0.00;99.87;101687.97;5020984;28;20454;-72
2022/12/24 03:08:03;;;;;;;18.02;6.68;;;;;;;0.03;100.00;101667.00;5026888;28;20045;-73
2022/12/24 03:10:39;;;;;;;15.25;7.35;;;;;;;0.07;100.00;101661.38;5019774;28;20041;-72
2022/12/24 03:13:11;;;;;;;18.13;8.02;;;;;;;0.07;100.00;101651.19;5024005;28;20554;-71
2022/12/24 03:15:40;;;;;;;19.63;6.75;;;;;;;0.08;100.00;101645.38;5026350;28;20052;-73
2022/12/24 03:18:13;;;;;;;15.73;6.03;;;;;;;0.11;100.00;101645.63;5026679;28;20137;-72
2022/12/24 03:20:45;;;;;;;11.07;5.72;;;;;;;0.13;99.69;101665.34;5023625;28;20455;-72
2022/12/24 03:23:15;;;;;;;17.27;6.75;;;;;;;0.11;99.57;101676.16;5021823;28;20671;-71
2022/12/24 03:25:45;;;;;;;16.92;6.72;;;;;;;0.10;99.16;101662.53;5022450;28;20100;-72
2022/12/24 03:28:16;;;;;;;15.30;5.93;;;;;;;0.07;99.43;101682.66;5021031;28;20055;-73
2022/12/24 03:30:48;;;;;;;14.40;6.00;;;;;;;0.02;99.94;101681.34;5021025;28;20729;-73
2022/12/24 03:33:18;;;;;;;12.02;6.25;;;;;;;-0.06;100.00;101667.97;5022371;28;20057;-74
2022/12/24 03:35:47;;;;;;;12.02;5.60;;;;;;;0.04;100.00;101678.94;5024858;28;20048;-72
2022/12/24 03:38:15;;;;;;;18.88;6.63;;;;;;;0.08;100.00;101696.25;5024205;28;20045;-72
2022/12/24 03:40:44;;;;;;;13.00;6.15;;;;;;;0.11;100.00;101697.41;5021344;28;20115;-72
2022/12/24 03:43:13;;;;;;;12.30;6.32;;;;;;;0.15;100.00;101702.00;5023041;28;20060;-72
2022/12/24 03:45:42;;;;;;;11.38;5.32;;;;;;;0.18;100.00;101711.56;5019938;28;20454;-72
2022/12/24 03:48:10;;;;;;;12.90;5.70;;;;;;;0.19;100.00;101704.06;5027365;28;20049;-73
2022/12/24 03:50:40;;;;;;;11.85;5.28;;;;;;;0.22;100.00;101705.97;5025508;28;20034;-73
2022/12/24 03:53:09;;;;;;;12.25;6.35;;;;;;;0.25;100.00;101690.94;5023799;28;20045;-73
2022/12/24 03:55:39;;;;;;;13.35;5.88;;;;;;;0.20;100.00;101682.91;5024757;28;20049;-72
2022/12/24 03:58:08;;;;;;;12.07;5.47;;;;;;;0.09;100.00;101686.22;5024642;28;20053;-72
2022/12/24 04:00:36;;;;;;;16.00;6.28;;;;;;;-0.02;100.00;101674.22;5022603;28;20621;-73
2022/12/24 04:03:05;;;;;;;11.68;5.47;;;;;;;-0.09;100.00;101682.06;5021437;28;20519;-73
2022/12/24 04:05:33;;;;;;;11.77;5.20;;;;;;;-0.14;100.00;101673.16;5023890;28;20052;-74
2022/12/24 04:08:04;;;;;;;17.70;6.68;;;;;;;-0.19;100.00;101676.94;5023934;28;20037;-73
2022/12/24 04:10:32;;;;;;;16.52;7.70;;;;;;;-0.20;100.00;101675.19;5022763;28;20052;-72
2022/12/24 04:13:01;;;;;;;18.23;6.65;;;;;;;-0.18;100.00;101655.81;5026436;28;20079;-72
2022/12/24 04:15:29;;;;;;;14.77;6.88;;;;;;;-0.16;100.00;101639.03;5022484;28;20057;-71
2022/12/24 04:17:58;;;;;;;21.02;7.35;;;;;;;-0.11;100.00;101645.44;5022125;28;20053;-72
2022/12/24 04:20:27;;;;;;;15.25;6.35;;;;;;;-0.08;100.00;101658.44;5022924;28;20044;-73
2022/12/24 04:22:55;;;;;;;20.08;7.60;;;;;;;-0.02;100.00;101666.59;5025686;28;20049;-74
2022/12/24 04:25:26;;;;;;;16.25;7.60;;;;;;;0.05;100.00;101676.53;5028795;28;20388;-72
2022/12/24 04:27:54;;;;;;;17.05;7.30;;;;;;;0.12;100.00;101690.69;5023618;28;20056;-72
2022/12/24 04:30:23;;;;;;;16.55;6.13;;;;;;;0.19;100.00;101706.59;5018172;28;20053;-72
2022/12/24 04:32:52;;;;;;;14.50;6.45;;;;;;;0.23;100.00;101702.69;5030888;28;20057;-74
2022/12/24 04:35:20;;;;;;;15.65;6.78;;;;;;;0.29;100.00;101705.72;5024492;28;20054;-74
2022/12/24 04:37:49;;;;;;;19.08;8.05;;;;;;;0.34;100.00;101711.22;5023783;28;20111;-74
2022/12/24 04:40:18;;;;;;;18.10;7.15;;;;;;;0.36;100.00;101709.69;5021548;28;20050;-76
2022/12/24 04:42:49;;;;;;;22.75;8.57;;;;;;;0.39;100.00;101713.41;5017675;28;20405;-76
2022/12/24 04:45:18;;;;;;;19.65;8.85;;;;;;;0.42;100.00;101715.31;5024313;28;20064;-76
2022/12/24 04:47:47;;;;;;;22.45;8.00;;;;;;;0.42;100.00;101712.78;5024748;28;20437;-74
2022/12/24 04:50:16;;;;;;;20.90;9.43;;;;;;;0.39;100.00;101705.78;5020147;28;20053;-76
2022/12/24 04:52:44;;;;;;;27.13;10.38;;;;;;;0.38;100.00;101698.00;5024002;28;20053;-74
2022/12/24 04:55:13;;;;;;;26.58;9.02;;;;;;;0.39;100.00;101693.03;5023729;28;20620;-74
2022/12/24 04:57:41;;;;;;;16.83;8.55;;;;;;;0.40;100.00;101697.34;5023538;28;20499;-74
2022/12/24 05:00:13;;;;;;;17.38;8.32;;;;;;;0.43;100.00;101689.09;5022624;28;20096;-75
2022/12/24 05:02:41;;;;;;;26.20;8.88;;;;;;;0.46;100.00;101685.91;5020973;28;20513;-75
2022/12/24 05:05:10;;;;;;;21.77;8.68;;;;;;;0.50;100.00;101687.97;5023556;28;20442;-75
2022/12/24 05:07:39;;;;;;;26.83;9.52;;;;;;;0.51;100.00;101690.66;5019695;28;20052;-76
2022/12/24 05:10:09;;;;;;;24.40;9.25;;;;;;;0.51;100.00;101687.22;5016805;28;20045;-76
2022/12/24 05:12:38;;;;;;;29.85;9.10;;;;;;;0.51;100.00;101688.09;5024169;28;20045;-74
2022/12/24 05:15:08;;;;;;;16.98;8.13;;;;;;;0.51;100.00;101677.03;5017809;28;20058;-76
2022/12/24 05:17:38;;;;;;;22.63;8.35;;;;;;;0.56;100.00;101684.28;5023827;28;20053;-75
2022/12/24 05:20:08;;;;;;;21.75;8.60;;;;;;;0.57;100.00;101680.97;5025586;28;20607;-73
2022/12/24 05:28:07;;;;;;;24.70;7.93;;;;;;;0.58;100.00;101685.31;5020940;28;20056;-73
2022/12/24 05:30:36;;;;;;;33.97;9.65;;;;;;;0.69;100.00;101695.47;5019951;28;20038;-76
2022/12/24 05:33:06;;;;;;;23.27;8.95;;;;;;;0.73;100.00;101700.06;5023463;28;20492;-75
2022/12/24 05:35:34;;;;;;;20.33;7.68;;;;;;;0.75;100.00;101696.00;5027474;28;20057;-74
2022/12/24 05:38:03;;;;;;;17.70;7.38;;;;;;;0.73;100.00;101705.16;5028898;28;20080;-75
2022/12/24 05:40:31;;;;;;;25.02;9.43;;;;;;;0.73;100.00;101700.97;5026633;28;20575;-76
2022/12/24 05:43:00;;;;;;;25.38;8.27;;;;;;;0.75;100.00;101699.44;5027834;28;20057;-76
2022/12/24 05:45:36;;;;;;;24.63;8.52;;;;;;;0.77;100.00;101709.78;5024515;28;20045;-75
2022/12/24 05:48:07;;;;;;;24.27;8.20;;;;;;;0.78;100.00;101717.56;5026476;28;20056;-76
2022/12/24 05:50:35;;;;;;;21.27;7.95;;;;;;;0.80;100.00;101704.91;5027346;28;20103;-75
2022/12/24 05:53:04;;;;;;;27.52;9.18;;;;;;;0.79;100.00;101719.31;5023435;28;20046;-74
2022/12/24 05:55:32;;;;;;;22.38;8.38;;;;;;;0.80;100.00;101725.31;5024193;28;20053;-75
2022/12/24 05:58:01;;;;;;;29.88;9.52;;;;;;;0.81;100.00;101719.47;5029494;28;20041;-77
2022/12/24 06:00:30;;;;;;;25.77;7.25;;;;;;;0.78;100.00;101704.81;5027491;28;20561;-74
2022/12/24 06:02:58;;;;;;;24.85;8.52;;;;;;;0.73;100.00;101723.88;5026404;28;20060;-77
2022/12/24 06:05:28;;;;;;;25.10;8.68;;;;;;;0.71;100.00;101734.72;5033457;28;20049;-76
2022/12/24 06:07:57;;;;;;;25.38;8.70;;;;;;;0.72;100.00;101736.53;5029014;28;20053;-80
2022/12/24 06:10:26;;;;;;;29.83;9.25;;;;;;;0.72;100.00;101747.59;5027666;28;20060;-80
2022/12/24 06:12:54;;;;;;;24.35;8.95;;;;;;;0.74;100.00;101746.06;5026823;28;20053;-78
2022/12/24 06:15:23;;;;;;;22.15;8.35;;;;;;;0.75;100.00;101741.88;5026251;28;20060;-78
2022/12/24 06:17:52;;;;;;;23.23;8.70;;;;;;;0.74;100.00;101756.25;5025502;28;20053;-76
2022/12/24 06:20:20;;;;;;;31.55;9.80;;;;;;;0.74;100.00;101753.72;5025905;28;20103;-78
2022/12/24 06:22:50;;;;;;;32.65;11.00;;;;;;;0.74;100.00;101753.72;5021638;28;20052;-77
2022/12/24 06:25:19;;;;;;;27.73;9.88;;;;;;;0.75;100.00;101773.31;5028784;28;21145;-78
2022/12/24 06:27:47;;;;;;;23.67;9.73;;;;;;;0.79;100.00;101784.69;5030103;28;20041;-77
2022/12/24 06:30:16;;;;;;;31.67;11.07;;;;;;;0.82;100.00;101784.94;5027969;28;20706;-77
2022/12/24 06:32:45;;;;;;;27.23;10.70;;;;;;;0.86;100.00;101781.88;5029243;28;20061;-76
2022/12/24 06:35:13;;;;;;;24.27;9.45;;;;;;;0.89;100.00;101781.25;5027339;28;20494;-74
2022/12/24 06:37:42;;;;;;;31.45;11.27;;;;;;;0.91;99.93;101770.41;5022011;28;20050;-73
2022/12/24 06:40:13;;;;;;;31.48;9.68;;;;;;;0.92;99.75;101767.13;5026910;28;20049;-72
2022/12/24 06:42:41;;;;;;;33.67;10.50;;;;;;;0.93;99.87;101758.69;5022423;28;20107;-73
2022/12/24 06:45:10;;;;;;;27.13;9.27;;;;;;;0.95;100.00;101751.19;5022465;28;20060;-73
2022/12/24 06:47:39;;;;;;;26.80;7.78;;;;;;;0.88;99.34;101729.41;5026494;28;20053;-74
2022/12/24 06:50:09;;;;;;;27.55;10.38;;;;;;;0.82;100.00;101723.78;5023703;28;20936;-74
2022/12/24 06:52:37;;;;;;;21.42;8.20;;;;;;;0.78;100.00;101717.56;5022966;28;20077;-74
2022/12/24 06:55:15;;;;;;;21.20;8.05;;;;;;;0.81;100.00;101722.88;5021654;28;20081;-79
2022/12/24 06:57:43;;;;;;;23.63;7.47;;;;;;;0.84;100.00;101735.88;5024669;28;20685;-74
2022/12/24 07:00:14;;;;;;;25.23;9.15;;;;;;;0.86;100.00;101743.66;5028151;28;20053;-75
2022/12/24 07:02:43;;;;;;;26.92;8.82;;;;;;;0.90;100.00;101732.97;5018704;28;20054;-73
2022/12/24 07:05:12;;;;;;;32.50;10.35;;;;;;;0.93;100.00;101738.31;5024861;28;20054;-76
2022/12/24 07:07:42;;;;;;;32.08;9.57;;;;;;;0.87;100.00;101754.75;5030209;28;20766;-74
2022/12/24 07:10:16;;;;;;;26.25;9.85;;;;;;;0.87;100.00;101749.63;5024489;28;20053;-74
2022/12/24 07:12:44;;;;;;;25.95;9.18;;;;;;;0.90;100.00;101738.06;5026250;28;20052;-74
2022/12/24 07:15:15;;;;;;;27.63;9.38;;;;;;;0.79;100.00;101721.88;5025417;28;20061;-73
2022/12/24 07:17:44;;;;;;;24.20;9.45;;;;;;;0.80;100.00;101730.41;5028186;28;20316;-74
2022/12/24 07:20:14;;;;;;;23.70;8.48;;;;;;;0.76;100.00;101729.25;5028837;28;20076;-75
2022/12/24 07:22:43;;;;;;;26.48;9.93;;;;;;;0.72;100.00;101747.59;5023522;28;20103;-73
2022/12/24 07:25:14;;;;;;;33.17;9.02;;;;;;;0.68;100.00;101735.34;5020514;28;20046;-74
2022/12/24 07:27:42;;;;;;;28.27;9.57;;;;;;;0.66;100.00;101730.91;5026802;28;20046;-75
2022/12/24 07:30:12;;;;;;;23.52;8.93;;;;;;;0.67;100.00;101753.97;5023278;28;20053;-74
2022/12/24 07:32:40;;;;;;;33.38;15.05;;;;;;;0.75;100.00;101758.03;5024978;28;20052;-74
2022/12/24 07:35:10;;;;;;;28.65;10.27;;;;;;;0.77;100.00;101756.50;5026687;28;20558;-73
2022/12/24 07:37:38;;;;;;;39.20;14.48;;;;;;;0.69;100.00;101766.81;5025953;28;20053;-74
2022/12/24 07:40:08;;;;;;;34.25;11.75;;;;;;;0.74;100.00;101773.22;5025142;28;20046;-74
2022/12/24 07:42:38;;;;;;;164.68;66.40;;;;;;;0.79;100.00;101770.28;5025031;28;20053;-74
2022/12/24 07:45:08;;;;;;;49.58;17.70;;;;;;;0.87;100.00;101770.94;5023337;28;20474;-75
2022/12/24 07:47:37;;;;;;;379.65;170.43;;;;;;;0.95;100.00;101775.00;5026977;28;20160;-74
2022/12/24 07:50:06;;;;;;;26.13;9.52;;;;;;;1.03;100.00;101774.00;5029080;28;20051;-75
2022/12/24 07:52:35;;;;;;;26.10;11.15;;;;;;;1.09;100.00;101768.53;5022845;28;20057;-76
2022/12/24 07:55:04;;;;;;;33.97;12.80;;;;;;;1.14;100.00;101779.09;5024497;28;20057;-75
2022/12/24 07:57:32;;;;;;;34.63;12.20;;;;;;;1.22;100.00;101790.84;5022717;28;20048;-75
2022/12/24 08:00:02;;;;;;;34.33;13.25;;;;;;;1.30;100.00;101796.56;5026935;28;20045;-75
2022/12/24 08:02:31;;;;;;;37.15;13.02;;;;;;;1.36;100.00;101792.88;5022521;28;20046;-75
2022/12/24 08:05:00;;;;;;;36.83;14.20;;;;;;;1.41;100.00;101791.59;5024307;28;20073;-75
2022/12/24 08:07:28;;;;;;;29.23;10.57;;;;;;;1.46;100.00;101774.13;5028948;28;20069;-75
2022/12/24 08:09:57;;;;;;;28.85;11.23;;;;;;;1.48;100.00;101782.78;5016079;28;20050;-75
2022/12/24 08:12:25;;;;;;;37.30;14.77;;;;;;;1.46;100.00;101761.38;5026015;28;20049;-75
2022/12/24 08:14:54;;;;;;;36.47;10.38;;;;;;;1.55;100.00;101758.69;5025656;28;20558;-75
2022/12/24 08:17:24;;;;;;;43.38;14.02;;;;;;;1.55;100.00;101774.00;5022524;28;20652;-75
2022/12/24 08:19:53;;;;;;;38.30;14.02;;;;;;;1.58;100.00;101767.50;5025402;28;20046;-76
2022/12/24 08:22:21;;;;;;;34.72;12.48;;;;;;;1.59;100.00;101764.16;5023681;28;20713;-75
2022/12/24 08:24:50;;;;;;;43.72;13.82;;;;;;;1.61;100.00;101762.63;5025125;28;20122;-75
2022/12/24 08:27:18;;;;;;;31.90;12.73;;;;;;;1.63;100.00;101778.97;5023382;28;20041;-75
2022/12/24 08:29:47;;;;;;;31.10;12.70;;;;;;;1.64;100.00;101777.28;5021593;28;20053;-76
2022/12/24 08:32:15;;;;;;;29.00;11.45;;;;;;;1.62;99.38;101782.25;5027342;28;20061;-75
2022/12/24 08:34:45;;;;;;;29.60;10.57;;;;;;;1.62;99.22;101772.06;5026315;28;20455;-75
2022/12/24 08:37:14;;;;;;;27.13;9.00;;;;;;;1.62;98.44;101776.28;5025624;28;20115;-75
2022/12/24 08:39:42;;;;;;;27.52;9.73;;;;;;;1.61;97.73;101770.28;5021432;28;20112;-75
2022/12/24 08:42:11;;;;;;;27.30;10.50;;;;;;;1.62;97.99;101763.50;5024762;28;20049;-76
2022/12/24 08:44:40;;;;;;;24.92;9.38;;;;;;;1.62;97.67;101760.97;5022805;28;20131;-76
2022/12/24 08:47:08;;;;;;;26.65;9.30;;;;;;;1.61;98.25;101764.31;5026943;28;20670;-75
2022/12/24 08:49:47;;;;;;;26.80;9.77;;;;;;;1.63;97.84;101762.78;5021621;28;20101;-76
2022/12/24 08:52:16;;;;;;;26.30;9.52;;;;;;;1.60;97.98;101762.50;5021661;28;20507;-76
2022/12/24 08:54:44;;;;;;;28.40;10.60;;;;;;;1.54;98.35;101762.91;5022120;28;20519;-75
2022/12/24 08:57:13;;;;;;;32.30;11.45;;;;;;;1.51;98.53;101767.72;5026268;28;20127;-75
2022/12/24 08:59:42;;;;;;;33.05;11.43;;;;;;;1.54;99.10;101772.22;5027185;28;20056;-75
2022/12/24 09:02:10;;;;;;;31.67;10.88;;;;;;;1.57;98.90;101769.91;5023400;28;20064;-75
2022/12/24 09:04:40;;;;;;;26.73;10.00;;;;;;;1.59;98.97;101763.28;5028424;28;20046;-75
2022/12/24 09:07:17;;;;;;;33.50;11.35;;;;;;;1.58;98.32;101754.75;5025251;28;20156;-75
2022/12/24 09:09:46;;;;;;;31.58;10.55;;;;;;;1.60;98.38;101747.19;5027125;28;20037;-76
2022/12/24 09:12:14;;;;;;;30.27;10.48;;;;;;;1.62;97.72;101753.31;5027448;28;20079;-76
2022/12/24 09:14:43;;;;;;;27.23;9.98;;;;;;;1.61;98.65;101756.66;5026173;28;20045;-75
2022/12/24 09:17:12;;;;;;;30.50;10.40;;;;;;;1.62;98.97;101760.97;5026772;28;20544;-75
2022/12/24 09:19:40;;;;;;;26.67;10.38;;;;;;;1.63;98.97;101767.88;5026324;28;20046;-74
2022/12/24 09:22:10;;;;;;;28.17;10.20;;;;;;;1.64;98.83;101769.63;5026288;28;20049;-75
2022/12/24 09:24:39;;;;;;;28.85;9.68;;;;;;;1.67;98.76;101774.97;5027533;28;20045;-76
2022/12/24 09:27:07;;;;;;;29.63;10.82;;;;;;;1.68;98.84;101771.69;5025080;28;20464;-75
2022/12/24 09:29:39;;;;;;;28.95;10.10;;;;;;;1.68;98.33;101775.13;5029926;28;20045;-75
2022/12/24 09:32:08;;;;;;;24.92;10.18;;;;;;;1.71;99.62;101776.13;5030420;28;20123;-75
2022/12/24 09:34:37;;;;;;;28.73;11.25;;;;;;;1.75;98.57;101756.09;5027685;28;20044;-76
2022/12/24 09:37:06;;;;;;;32.20;10.98;;;;;;;1.78;98.07;101763.97;5025844;28;20521;-75
2022/12/24 09:39:36;;;;;;;23.10;9.82;;;;;;;1.79;98.37;101767.47;5026541;28;20049;-76
2022/12/24 09:42:15;;;;;;;26.25;10.27;;;;;;;1.81;99.03;101768.44;5021950;28;20660;-75
2022/12/24 09:44:47;;;;;;;33.67;11.23;;;;;;;1.82;98.47;101770.25;5027371;28;20689;-75
2022/12/24 09:47:25;;;;;;;32.63;10.68;;;;;;;1.81;98.48;101787.22;5027461;28;20061;-75
2022/12/24 09:49:57;;;;;;;30.02;11.35;;;;;;;1.83;98.90;101793.34;5024512;28;20157;-76
2022/12/24 09:52:33;;;;;;;27.40;10.18;;;;;;;1.84;98.18;101790.00;5028033;28;20053;-75
2022/12/24 09:55:08;;;;;;;32.08;10.93;;;;;;;1.82;97.36;101791.53;5021596;28;20053;-75
2022/12/24 09:57:42;;;;;;;29.10;10.45;;;;;;;1.81;98.09;101792.31;5027434;28;20612;-75
2022/12/24 10:00:20;;;;;;;36.05;12.98;;;;;;;1.84;98.02;101789.13;5026611;28;20048;-75
2022/12/24 10:02:48;;;;;;;31.23;10.57;;;;;;;1.88;98.43;101781.84;5027958;28;20099;-75
2022/12/24 10:05:34;;;;;;;30.48;11.93;;;;;;;1.84;98.06;101787.47;5028488;28;20054;-75
2022/12/24 10:08:15;;;;;;;36.45;13.02;;;;;;;1.82;98.15;101776.22;5023820;28;20049;-75
2022/12/24 10:10:52;;;;;;;29.83;11.02;;;;;;;1.79;98.09;101781.09;5031775;28;20053;-75
2022/12/24 10:13:33;;;;;;;28.17;9.57;;;;;;;1.80;97.98;101793.06;5021886;28;20070;-76
2022/12/24 10:16:09;;;;;;;29.27;10.10;;;;;;;1.81;98.32;101792.31;5027001;28;20428;-75
2022/12/24 10:18:46;;;;;;;34.63;12.00;;;;;;;1.84;97.85;101784.91;5018083;28;20091;-76
2022/12/24 10:21:19;;;;;;;25.27;9.30;;;;;;;1.86;97.34;101778.28;5023123;28;20148;-75
2022/12/24 10:23:54;;;;;;;25.50;10.38;;;;;;;1.86;97.18;101783.38;5026837;28;20057;-74
2022/12/24 10:26:30;;;;;;;31.70;11.25;;;;;;;1.88;97.99;101783.50;5025742;28;20041;-75
2022/12/24 10:29:01;;;;;;;34.45;11.25;;;;;;;1.89;97.43;101795.50;5023901;28;20073;-75
2022/12/24 10:31:32;;;;;;;29.98;11.32;;;;;;;1.85;97.21;101786.69;5028028;28;20129;-75
2022/12/24 10:34:06;;;;;;;36.42;12.15;;;;;;;1.86;97.39;101801.25;5022795;28;20046;-75
2022/12/24 10:36:34;;;;;;;29.90;11.10;;;;;;;1.88;97.93;101817.56;5029061;28;20111;-75
2022/12/24 10:39:03;;;;;;;29.10;11.60;;;;;;;1.91;98.00;101810.94;5021834;28;20049;-76
2022/12/24 10:41:35;;;;;;;26.88;10.65;;;;;;;1.92;96.92;101807.59;5017897;28;20049;-75
2022/12/24 10:44:05;;;;;;;27.20;10.88;;;;;;;1.83;96.54;101805.19;5020857;28;20124;-73
2022/12/24 10:46:38;;;;;;;32.50;10.10;;;;;;;1.73;97.79;101798.44;5027828;28;20384;-75
2022/12/24 10:49:12;;;;;;;26.85;10.43;;;;;;;1.70;99.18;101797.31;5031376;28;20072;-75
2022/12/24 10:51:46;;;;;;;27.58;10.18;;;;;;;1.67;99.63;101792.84;5027541;28;20088;-75
2022/12/24 10:54:17;;;;;;;23.88;9.48;;;;;;;1.66;98.92;101788.50;5028193;28;20096;-75
2022/12/24 10:56:51;;;;;;;28.13;11.20;;;;;;;1.65;99.42;101789.31;5025898;28;20050;-75
2022/12/24 10:59:27;;;;;;;29.38;12.40;;;;;;;1.65;100.00;101792.72;5033137;28;20054;-77
2022/12/24 11:01:56;;;;;;;32.65;9.98;;;;;;;1.67;99.96;101786.09;5025822;28;20060;-75
2022/12/24 11:04:27;;;;;;;28.25;11.65;;;;;;;1.66;99.88;101793.63;5026857;28;20064;-75
2022/12/24 11:06:57;;;;;;;36.47;11.05;;;;;;;1.65;100.00;101786.75;5027757;28;20608;-75
2022/12/24 11:09:27;;;;;;;32.53;10.98;;;;;;;1.68;100.00;101790.41;5027589;28;20569;-75
2022/12/24 11:12:00;;;;;;;30.85;11.75;;;;;;;1.70;100.00;101800.75;5025082;28;20050;-75
2022/12/24 11:14:34;;;;;;;33.38;12.70;;;;;;;1.72;100.00;101804.34;5025735;28;20068;-76
2022/12/24 11:17:03;;;;;;;29.58;11.00;;;;;;;1.75;99.44;101790.94;5022802;28;20056;-75
2022/12/24 11:19:34;;;;;;;29.95;10.77;;;;;;;1.73;99.11;101789.91;5021355;28;20054;-75
2022/12/24 11:22:05;;;;;;;32.72;11.55;;;;;;;1.69;99.91;101793.84;5025492;28;20103;-75
2022/12/24 11:24:35;;;;;;;30.52;11.15;;;;;;;1.64;99.10;101790.03;5025047;28;20049;-75
2022/12/24 11:27:39;;;;;;;33.22;9.68;;;;;;;1.65;100.00;101789.31;5021376;28;20063;-75
2022/12/24 11:30:26;;;;;;;28.27;10.57;;;;;;;1.72;100.00;101777.91;5027204;28;20458;-76
2022/12/24 11:33:17;;;;;;;29.63;9.68;;;;;;;1.77;99.61;101779.19;5025997;28;20049;-76
2022/12/24 11:35:53;;;;;;;32.47;11.27;;;;;;;1.79;99.53;101775.13;5027130;28;20061;-75
2022/12/24 11:38:25;;;;;;;32.80;10.85;;;;;;;1.80;100.00;101777.75;5024023;28;20110;-76
2022/12/24 11:41:10;;;;;;;28.38;10.38;;;;;;;1.85;100.00;101771.38;5023625;28;20115;-75
2022/12/24 11:43:45;;;;;;;27.98;9.13;;;;;;;1.86;99.46;101765.50;5020409;28;20049;-75